Time;durP1;ratioP1;P1;durP2;ratioP2;P2;SDS_P1;SDS_P2;PMS_P1;PMS_P2;Temp;Humidity;BMP_temperature;BMP_pressure;BME280_temperature;BME280_humidity;BME280_pressure;Samples;Min_cycle;Max_cycle;Signal;HPM_P1;HPM_P2
2023/02/27 00:00:59;;;;;;;2.67;1.83;;;;;;;;;;5073420;28;20596;-88
2023/02/27 00:04:04;;;;;;;2.43;1.90;;;;;;;;;;5072721;28;20596;-86
2023/02/27 00:07:07;;;;;;;2.80;2.00;;;;;;;;;;5072238;28;20604;-88
2023/02/27 00:10:13;;;;;;;2.67;1.93;;;;;;;;;;5072464;28;20961;-88
2023/02/27 00:13:18;;;;;;;3.43;2.03;;;;;;;;;;5072819;28;20596;-86
2023/02/27 00:16:22;;;;;;;3.60;1.90;;;;;;;;;;5071382;28;20589;-87
2023/02/27 00:19:26;;;;;;;2.17;1.83;;;;;;;;;;5071336;28;20620;-86
2023/02/27 00:22:30;;;;;;;5.30;2.30;;;;;;;;;;5071400;28;20553;-86
2023/02/27 00:25:35;;;;;;;4.73;2.20;;;;;;;;;;5071091;28;21159;-86
2023/02/27 00:28:39;;;;;;;2.87;2.00;;;;;;;;;;5070898;28;20628;-88
2023/02/27 00:31:43;;;;;;;3.90;1.97;;;;;;;;;;5071109;28;20549;-88
2023/02/27 00:34:47;;;;;;;4.17;1.90;;;;;;;;;;5070973;28;21158;-88
2023/02/27 00:37:51;;;;;;;5.03;2.20;;;;;;;;;;5082421;28;20596;-88
2023/02/27 00:40:56;;;;;;;2.20;1.80;;;;;;;;;;5082468;28;21174;-88
2023/02/27 00:44:00;;;;;;;3.67;2.13;;;;;;;;;;5071234;28;20553;-88
2023/02/27 00:47:04;;;;;;;2.73;2.00;;;;;;;;;;5071216;28;20554;-88
2023/02/27 00:50:10;;;;;;;2.53;1.93;;;;;;;;;;5059622;28;20616;-88
2023/02/27 00:53:14;;;;;;;3.97;2.20;;;;;;;;;;5059539;28;20553;-88
2023/02/27 00:56:19;;;;;;;3.73;2.40;;;;;;;;;;5071099;28;20609;-88
2023/02/27 00:59:25;;;;;;;2.60;2.27;;;;;;;;;;5070570;28;20632;-87
2023/02/27 01:02:30;;;;;;;4.07;2.50;;;;;;;;;;5070631;28;20589;-86
2023/02/27 01:05:34;;;;;;;4.40;2.50;;;;;;;;;;5070640;28;20545;-87
2023/02/27 01:08:38;;;;;;;4.17;2.43;;;;;;;;;;5070579;28;20616;-86
2023/02/27 01:11:42;;;;;;;3.37;2.20;;;;;;;;;;5082021;28;20557;-86
2023/02/27 01:14:46;;;;;;;3.63;2.33;;;;;;;;;;5070565;28;20645;-86
2023/02/27 01:17:50;;;;;;;4.37;2.47;;;;;;;;;;5081755;28;20593;-87
2023/02/27 01:20:55;;;;;;;3.90;2.40;;;;;;;;;;5058760;28;20558;-88
2023/02/27 01:23:59;;;;;;;3.83;2.43;;;;;;;;;;5070885;28;20593;-88
2023/02/27 01:27:04;;;;;;;3.83;2.60;;;;;;;;;;5070323;28;20597;-88
2023/02/27 01:30:10;;;;;;;7.60;2.60;;;;;;;;;;5081671;28;20629;-87
2023/02/27 01:33:15;;;;;;;5.03;2.93;;;;;;;;;;5070230;28;20554;-86
2023/02/27 01:36:19;;;;;;;4.80;2.70;;;;;;;;;;5058610;28;20605;-88
2023/02/27 01:39:26;;;;;;;3.40;2.40;;;;;;;;;;5069765;28;20644;-88
2023/02/27 01:42:32;;;;;;;2.97;2.33;;;;;;;;;;5070066;28;20561;-90
2023/02/27 01:45:41;;;;;;;4.17;2.70;;;;;;;;;;5081359;28;21104;-90
2023/02/27 01:48:46;;;;;;;5.33;3.10;;;;;;;;;;5093849;28;20620;-91
2023/02/27 01:51:55;;;;;;;4.90;2.70;;;;;;;;;;5069871;28;20553;-88
2023/02/27 01:54:59;;;;;;;6.40;3.00;;;;;;;;;;5069830;28;20609;-86
2023/02/27 01:58:06;;;;;;;4.80;2.80;;;;;;;;;;5069771;28;20554;-88
2023/02/27 02:01:11;;;;;;;4.27;2.90;;;;;;;;;;5058260;28;20549;-87
2023/02/27 02:04:26;;;;;;;5.03;3.00;;;;;;;;;;5069598;28;20893;-88
2023/02/27 02:07:31;;;;;;;4.07;3.10;;;;;;;;;;5081131;28;20545;-88
2023/02/27 02:10:36;;;;;;;5.67;2.70;;;;;;;;;;5069763;28;20897;-88
2023/02/27 02:13:41;;;;;;;4.13;2.60;;;;;;;;;;5069885;28;20553;-88
2023/02/27 02:16:53;;;;;;;6.97;3.03;;;;;;;;;;5058912;28;20889;-89
2023/02/27 02:20:07;;;;;;;4.60;2.60;;;;;;;;;;5069445;28;20617;-87
2023/02/27 02:23:44;;;;;;;4.23;2.70;;;;;;;;;;5058156;28;20545;-87
2023/02/27 02:27:04;;;;;;;6.57;3.20;;;;;;;;;;5058267;28;21092;-87
2023/02/27 02:30:30;;;;;;;3.70;2.77;;;;;;;;;;5061987;28;20624;-88
2023/02/27 02:33:43;;;;;;;3.53;2.57;;;;;;;;;;5073589;28;20537;-87
2023/02/27 02:36:56;;;;;;;4.50;3.10;;;;;;;;;;5073643;28;20609;-87
2023/02/27 02:40:38;;;;;;;4.30;2.60;;;;;;;;;;5062184;28;20631;-88
2023/02/27 02:44:01;;;;;;;3.20;2.80;;;;;;;;;;5073464;28;20537;-88
2023/02/27 02:47:17;;;;;;;5.07;2.73;;;;;;;;;;5084661;28;20542;-87
2023/02/27 02:50:31;;;;;;;6.10;3.30;;;;;;;;;;5073233;28;20554;-88
2023/02/27 02:53:59;;;;;;;3.93;2.70;;;;;;;;;;5073290;28;20549;-88
2023/02/27 02:57:18;;;;;;;3.57;2.57;;;;;;;;;;5061530;28;20542;-89
2023/02/27 03:00:29;;;;;;;5.20;2.97;;;;;;;;;;5073368;28;20545;-89
2023/02/27 03:03:55;;;;;;;4.63;2.67;;;;;;;;;;5072925;28;20553;-86
2023/02/27 03:07:05;;;;;;;3.57;2.60;;;;;;;;;;5072531;28;20546;-86
2023/02/27 03:10:18;;;;;;;3.57;2.87;;;;;;;;;;5061098;28;20625;-86
2023/02/27 03:13:30;;;;;;;8.77;3.23;;;;;;;;;;5072540;28;20549;-86
2023/02/27 03:16:42;;;;;;;4.40;2.90;;;;;;;;;;5072447;28;20980;-86
2023/02/27 03:19:53;;;;;;;3.23;2.20;;;;;;;;;;5072247;28;20620;-86
2023/02/27 03:23:04;;;;;;;3.93;2.67;;;;;;;;;;5072479;28;20542;-86
2023/02/27 03:26:13;;;;;;;4.90;2.77;;;;;;;;;;5072704;28;20553;-87
2023/02/27 03:29:38;;;;;;;4.83;2.60;;;;;;;;;;5072522;28;20620;-86
2023/02/27 03:33:11;;;;;;;4.40;2.73;;;;;;;;;;5072148;28;20668;-86
2023/02/27 03:36:36;;;;;;;3.90;3.20;;;;;;;;;;5072175;28;20605;-86
2023/02/27 03:39:50;;;;;;;4.07;2.70;;;;;;;;;;5070778;28;20644;-86
2023/02/27 03:43:23;;;;;;;5.10;2.93;;;;;;;;;;5072046;28;20545;-86
2023/02/27 03:46:32;;;;;;;2.97;2.43;;;;;;;;;;5072390;28;21091;-86
2023/02/27 03:49:36;;;;;;;3.67;3.00;;;;;;;;;;5083071;28;20620;-88
2023/02/27 03:52:43;;;;;;;3.50;2.83;;;;;;;;;;5071772;28;20593;-88
2023/02/27 03:55:50;;;;;;;4.47;2.70;;;;;;;;;;5094923;28;20600;-88
2023/02/27 03:58:54;;;;;;;3.90;2.70;;;;;;;;;;5083254;28;20628;-88
2023/02/27 04:02:00;;;;;;;4.33;2.33;;;;;;;;;;5083317;28;20549;-88
2023/02/27 04:05:05;;;;;;;3.53;2.60;;;;;;;;;;5083243;28;20553;-88
2023/02/27 04:09:22;;;;;;;2.90;2.40;;;;;;;;;;5062809;28;20617;-88
2023/02/27 04:12:57;;;;;;;4.60;2.80;;;;;;;;;;5062862;28;20616;-88
2023/02/27 04:16:14;;;;;;;4.43;2.80;;;;;;;;;;5070235;28;20959;-88
2023/02/27 04:19:57;;;;;;;6.27;3.20;;;;;;;;;;5069399;28;21162;-88
2023/02/27 04:23:07;;;;;;;3.87;2.53;;;;;;;;;;5062815;28;20613;-88
2023/02/27 04:26:20;;;;;;;3.30;2.80;;;;;;;;;;5057945;28;20597;-88
2023/02/27 04:29:52;;;;;;;3.27;2.73;;;;;;;;;;5069205;28;20620;-88
2023/02/27 04:33:04;;;;;;;4.23;2.53;;;;;;;;;;5069218;28;20553;-88
2023/02/27 04:36:16;;;;;;;6.40;3.00;;;;;;;;;;5057868;28;20605;-88
2023/02/27 04:39:27;;;;;;;3.70;2.97;;;;;;;;;;5057256;28;20636;-88
2023/02/27 04:42:37;;;;;;;4.07;3.37;;;;;;;;;;5069139;28;20862;-88
2023/02/27 04:45:45;;;;;;;5.63;2.93;;;;;;;;;;5080114;28;20546;-88
2023/02/27 04:49:13;;;;;;;5.83;3.17;;;;;;;;;;5070062;28;20628;-88
2023/02/27 04:52:27;;;;;;;3.93;3.10;;;;;;;;;;5070036;28;20546;-89
2023/02/27 04:55:37;;;;;;;7.53;3.00;;;;;;;;;;5082120;28;20693;-87
2023/02/27 04:58:53;;;;;;;3.33;2.80;;;;;;;;;;5081557;28;20620;-88
2023/02/27 05:02:14;;;;;;;6.07;3.37;;;;;;;;;;5070886;28;21083;-87
2023/02/27 05:05:26;;;;;;;7.53;3.30;;;;;;;;;;5059000;28;20880;-87
2023/02/27 05:08:56;;;;;;;3.33;3.03;;;;;;;;;;5070502;28;20620;-87
2023/02/27 05:12:21;;;;;;;5.30;2.90;;;;;;;;;;5070130;28;20542;-86
2023/02/27 05:15:31;;;;;;;5.80;3.30;;;;;;;;;;5058725;28;20557;-86
2023/02/27 05:18:35;;;;;;;3.03;2.77;;;;;;;;;;5070134;28;20960;-86
2023/02/27 05:21:55;;;;;;;4.73;3.00;;;;;;;;;;5070139;28;20554;-86
2023/02/27 05:25:29;;;;;;;4.13;3.20;;;;;;;;;;5069859;28;20549;-88
2023/02/27 05:29:02;;;;;;;5.33;3.63;;;;;;;;;;5069658;28;20613;-88
2023/02/27 05:32:18;;;;;;;4.77;3.37;;;;;;;;;;5070030;28;20549;-88
2023/02/27 05:35:45;;;;;;;5.43;3.60;;;;;;;;;;5058764;28;20554;-88
2023/02/27 05:38:58;;;;;;;6.37;3.23;;;;;;;;;;5058060;28;21198;-88
2023/02/27 05:42:10;;;;;;;5.73;3.80;;;;;;;;;;5069911;28;20600;-90
2023/02/27 05:45:27;;;;;;;5.20;3.33;;;;;;;;;;5069603;28;20557;-90
2023/02/27 05:48:38;;;;;;;4.87;3.30;;;;;;;;;;5069551;28;20624;-89
2023/02/27 05:51:47;;;;;;;4.47;3.10;;;;;;;;;;5069484;28;20949;-90
2023/02/27 05:54:57;;;;;;;3.80;3.30;;;;;;;;;;5069661;28;20592;-91
2023/02/27 05:58:04;;;;;;;3.97;3.23;;;;;;;;;;5080889;28;20585;-88
2023/02/27 06:01:10;;;;;;;5.60;3.27;;;;;;;;;;5081004;28;20553;-88
2023/02/27 06:04:15;;;;;;;5.73;3.33;;;;;;;;;;5068767;28;20548;-88
2023/02/27 06:07:21;;;;;;;5.50;3.53;;;;;;;;;;5069576;28;20541;-86
2023/02/27 06:10:25;;;;;;;5.13;3.20;;;;;;;;;;5069745;28;20553;-88
2023/02/27 06:13:30;;;;;;;4.60;3.20;;;;;;;;;;5069426;28;20905;-88
2023/02/27 06:16:38;;;;;;;4.07;3.10;;;;;;;;;;5081176;28;20600;-86
2023/02/27 06:19:42;;;;;;;6.03;3.27;;;;;;;;;;5057559;28;20620;-88
2023/02/27 06:22:47;;;;;;;6.77;3.43;;;;;;;;;;5069350;28;20557;-88
2023/02/27 06:25:51;;;;;;;4.77;3.00;;;;;;;;;;5080676;28;20549;-89
2023/02/27 06:28:56;;;;;;;6.67;3.10;;;;;;;;;;5069026;28;20621;-89
2023/02/27 06:32:00;;;;;;;4.30;2.73;;;;;;;;;;5069123;28;20546;-89
2023/02/27 06:35:05;;;;;;;4.23;3.40;;;;;;;;;;5069305;28;21097;-89
2023/02/27 06:38:09;;;;;;;3.13;2.53;;;;;;;;;;5068801;28;20612;-90
2023/02/27 06:41:13;;;;;;;5.73;3.63;;;;;;;;;;5068975;28;20557;-90
2023/02/27 06:44:18;;;;;;;5.97;3.13;;;;;;;;;;5068864;28;20545;-89
2023/02/27 06:47:23;;;;;;;5.10;3.60;;;;;;;;;;5068887;28;21096;-89
2023/02/27 06:50:27;;;;;;;4.83;3.37;;;;;;;;;;5057487;28;20546;-89
2023/02/27 06:53:32;;;;;;;5.07;3.40;;;;;;;;;;5069007;28;20557;-91
2023/02/27 06:56:36;;;;;;;5.73;3.33;;;;;;;;;;5080456;28;20604;-90
2023/02/27 06:59:41;;;;;;;4.27;3.37;;;;;;;;;;5057245;28;20624;-91
2023/02/27 07:02:45;;;;;;;4.53;3.47;;;;;;;;;;5068867;28;21162;-90
2023/02/27 07:05:50;;;;;;;5.70;3.00;;;;;;;;;;5068696;28;20553;-91
2023/02/27 07:09:38;;;;;;;4.77;3.27;;;;;;;;;;5081359;28;20632;-91
2023/02/27 07:13:08;;;;;;;5.10;3.47;;;;;;;;;;5076139;28;20601;-90
2023/02/27 07:16:13;;;;;;;5.83;3.30;;;;;;;;;;5083958;28;20601;-88
2023/02/27 07:19:18;;;;;;;5.83;3.60;;;;;;;;;;5073485;28;20624;-88
2023/02/27 07:22:29;;;;;;;4.30;3.10;;;;;;;;;;5052989;28;20608;-87
2023/02/27 07:25:36;;;;;;;6.00;2.97;;;;;;;;;;5072592;28;21103;-86
2023/02/27 07:28:41;;;;;;;4.27;3.17;;;;;;;;;;5072212;28;20655;-88
2023/02/27 07:31:45;;;;;;;6.57;3.03;;;;;;;;;;5083807;28;20557;-89
2023/02/27 07:34:49;;;;;;;6.23;3.37;;;;;;;;;;5060820;28;20549;-88
2023/02/27 07:37:53;;;;;;;8.10;3.03;;;;;;;;;;5071999;28;20957;-86
2023/02/27 07:40:58;;;;;;;6.87;3.03;;;;;;;;;;5071971;28;20593;-88
2023/02/27 07:44:01;;;;;;;4.83;2.40;;;;;;;;;;5071977;28;20549;-88
2023/02/27 07:47:06;;;;;;;4.40;3.10;;;;;;;;;;5071860;28;20545;-88
2023/02/27 07:50:13;;;;;;;7.67;2.73;;;;;;;;;;5095899;28;20632;-88
2023/02/27 07:53:21;;;;;;;6.50;3.60;;;;;;;;;;5083556;28;20549;-88
2023/02/27 07:56:25;;;;;;;3.03;2.50;;;;;;;;;;5083197;28;20596;-88
2023/02/27 07:59:29;;;;;;;3.50;2.57;;;;;;;;;;5071746;28;20616;-89
2023/02/27 08:02:34;;;;;;;4.00;2.13;;;;;;;;;;5071850;28;21115;-86
2023/02/27 08:05:39;;;;;;;5.73;2.30;;;;;;;;;;5071637;28;21106;-87
2023/02/27 08:08:43;;;;;;;4.57;2.57;;;;;;;;;;5071612;28;20612;-86
2023/02/27 08:11:47;;;;;;;4.80;2.80;;;;;;;;;;5071491;28;20901;-87
2023/02/27 08:14:51;;;;;;;4.23;2.47;;;;;;;;;;5071230;28;20546;-87
2023/02/27 08:17:58;;;;;;;4.80;2.10;;;;;;;;;;5071068;28;20608;-87
2023/02/27 08:21:03;;;;;;;5.60;2.73;;;;;;;;;;5082787;28;20550;-86
2023/02/27 08:24:07;;;;;;;6.93;2.73;;;;;;;;;;5071430;28;21111;-86
2023/02/27 08:27:12;;;;;;;3.30;2.30;;;;;;;;;;5070523;28;20589;-88
2023/02/27 08:30:16;;;;;;;3.83;2.10;;;;;;;;;;5070994;28;20616;-88
2023/02/27 08:33:21;;;;;;;6.87;2.30;;;;;;;;;;5094968;28;20605;-88
2023/02/27 08:36:26;;;;;;;7.17;2.27;;;;;;;;;;5071130;28;20596;-86
2023/02/27 08:39:30;;;;;;;2.73;2.00;;;;;;;;;;5070782;28;20632;-88
2023/02/27 08:43:25;;;;;;;4.07;2.23;;;;;;;;;;5071074;28;20550;-88
2023/02/27 08:46:29;;;;;;;8.10;2.87;;;;;;;;;;5070789;28;20536;-86
2023/02/27 08:49:33;;;;;;;6.23;2.30;;;;;;;;;;5070647;28;20620;-86
2023/02/27 08:52:37;;;;;;;3.50;2.37;;;;;;;;;;5059387;28;20549;-87
2023/02/27 08:55:42;;;;;;;6.13;2.80;;;;;;;;;;5059122;28;20940;-87
2023/02/27 08:58:46;;;;;;;7.07;2.40;;;;;;;;;;5070309;28;20652;-87
2023/02/27 09:01:50;;;;;;;4.60;2.30;;;;;;;;;;5070278;28;20550;-86
2023/02/27 09:04:55;;;;;;;8.20;2.40;;;;;;;;;;5059038;28;20553;-86
2023/02/27 09:08:00;;;;;;;2.67;2.10;;;;;;;;;;5070592;28;20549;-88
2023/02/27 09:11:04;;;;;;;2.40;2.03;;;;;;;;;;5058972;28;20586;-88
2023/02/27 09:14:09;;;;;;;5.17;2.17;;;;;;;;;;5070387;28;20553;-87
2023/02/27 09:17:13;;;;;;;4.27;2.10;;;;;;;;;;5058538;28;20600;-86
2023/02/27 09:20:17;;;;;;;3.57;2.60;;;;;;;;;;5081860;28;20964;-89
2023/02/27 09:23:22;;;;;;;7.43;2.70;;;;;;;;;;5069966;28;20545;-88
2023/02/27 09:26:26;;;;;;;9.97;3.10;;;;;;;;;;5058618;28;20549;-88
2023/02/27 09:29:32;;;;;;;3.20;2.00;;;;;;;;;;5069875;28;20994;-88
2023/02/27 09:32:36;;;;;;;3.83;1.90;;;;;;;;;;5069944;28;20562;-87
2023/02/27 09:35:41;;;;;;;3.93;2.50;;;;;;;;;;5081487;28;20554;-88
2023/02/27 09:38:45;;;;;;;2.57;1.97;;;;;;;;;;5069678;28;20656;-86
2023/02/27 09:42:10;;;;;;;5.47;2.30;;;;;;;;;;5069933;28;20892;-86
2023/02/27 09:45:24;;;;;;;2.47;1.80;;;;;;;;;;5069696;28;21088;-86
2023/02/27 09:48:40;;;;;;;6.67;2.37;;;;;;;;;;5069688;28;20897;-87
2023/02/27 09:51:45;;;;;;;7.20;2.17;;;;;;;;;;5069926;28;20597;-87
2023/02/27 09:54:49;;;;;;;5.27;2.17;;;;;;;;;;5069556;28;20554;-88
2023/02/27 09:58:16;;;;;;;2.40;1.83;;;;;;;;;;5057794;28;20953;-87
2023/02/27 10:01:33;;;;;;;4.57;2.10;;;;;;;;;;5070072;28;20890;-87
2023/02/27 10:05:10;;;;;;;2.10;1.40;;;;;;;;;;5069188;28;20546;-86
2023/02/27 10:08:24;;;;;;;2.10;1.70;;;;;;;;;;5069482;28;20620;-87
2023/02/27 10:11:45;;;;;;;2.80;1.83;;;;;;;;;;5069364;28;20554;-87
2023/02/27 10:14:56;;;;;;;4.53;1.87;;;;;;;;;;5069777;28;20554;-86
2023/02/27 10:18:07;;;;;;;5.20;2.00;;;;;;;;;;5068903;28;21155;-87
2023/02/27 10:21:23;;;;;;;2.73;1.70;;;;;;;;;;5069452;28;20890;-86
2023/02/27 10:24:28;;;;;;;4.63;1.70;;;;;;;;;;5069215;28;20917;-87
2023/02/27 10:27:32;;;;;;;5.57;1.73;;;;;;;;;;5069080;28;20538;-86
2023/02/27 10:30:37;;;;;;;3.40;1.77;;;;;;;;;;5069170;28;20546;-87
2023/02/27 10:33:43;;;;;;;4.93;2.07;;;;;;;;;;5057435;28;20897;-87
2023/02/27 10:36:48;;;;;;;2.83;2.17;;;;;;;;;;5068990;28;20545;-87
2023/02/27 10:39:56;;;;;;;3.40;1.90;;;;;;;;;;5057419;28;20628;-87
2023/02/27 10:43:02;;;;;;;4.03;2.20;;;;;;;;;;5069345;28;20593;-87
2023/02/27 10:46:13;;;;;;;2.97;2.20;;;;;;;;;;5057715;28;20596;-87
2023/02/27 10:49:20;;;;;;;5.13;2.70;;;;;;;;;;5069539;28;20628;-87
2023/02/27 10:52:25;;;;;;;3.47;2.27;;;;;;;;;;5072916;28;20592;-86
2023/02/27 10:55:31;;;;;;;4.70;1.97;;;;;;;;;;5061251;28;20592;-87
2023/02/27 10:58:36;;;;;;;5.47;2.27;;;;;;;;;;5072498;28;20656;-87
2023/02/27 11:01:47;;;;;;;5.93;2.00;;;;;;;;;;5072567;28;20554;-87
2023/02/27 11:04:54;;;;;;;3.43;2.00;;;;;;;;;;5061576;28;20545;-87
2023/02/27 11:08:26;;;;;;;4.50;2.20;;;;;;;;;;5083990;28;20545;-87
2023/02/27 11:11:30;;;;;;;4.03;1.90;;;;;;;;;;5083987;28;20546;-86
2023/02/27 11:14:34;;;;;;;3.27;1.90;;;;;;;;;;5072560;28;21107;-86
2023/02/27 11:17:39;;;;;;;4.73;1.97;;;;;;;;;;5072599;28;20648;-88
2023/02/27 11:20:46;;;;;;;3.30;1.67;;;;;;;;;;5083769;28;20549;-86
2023/02/27 11:24:17;;;;;;;4.83;2.10;;;;;;;;;;5072242;28;21100;-87
2023/02/27 11:27:25;;;;;;;3.70;1.73;;;;;;;;;;5072101;28;20537;-86
2023/02/27 11:30:30;;;;;;;3.07;1.93;;;;;;;;;;5072114;28;20893;-86
2023/02/27 11:33:38;;;;;;;5.17;2.30;;;;;;;;;;5083639;28;20553;-86
2023/02/27 11:36:45;;;;;;;2.73;1.83;;;;;;;;;;5072067;28;20545;-87
2023/02/27 11:39:52;;;;;;;3.00;1.80;;;;;;;;;;5071787;28;21225;-87
2023/02/27 11:43:15;;;;;;;2.73;1.90;;;;;;;;;;5072053;28;20553;-87
2023/02/27 11:46:21;;;;;;;5.20;2.37;;;;;;;;;;5071843;28;20554;-87
2023/02/27 11:49:39;;;;;;;4.97;2.50;;;;;;;;;;5071817;28;20616;-87
2023/02/27 11:52:49;;;;;;;3.43;1.90;;;;;;;;;;5071408;28;20557;-87
2023/02/27 11:55:58;;;;;;;6.20;2.43;;;;;;;;;;5071580;28;20592;-87
2023/02/27 11:59:16;;;;;;;4.70;2.00;;;;;;;;;;5071470;28;21237;-88
2023/02/27 12:02:44;;;;;;;3.97;2.43;;;;;;;;;;5058605;28;20549;-87
2023/02/27 12:05:52;;;;;;;4.27;2.17;;;;;;;;;;5071610;28;20755;-87
2023/02/27 12:09:01;;;;;;;2.90;1.90;;;;;;;;;;5071118;28;20624;-87
2023/02/27 12:12:17;;;;;;;8.50;2.13;;;;;;;;;;5082845;28;20549;-87
2023/02/27 12:15:28;;;;;;;4.53;2.30;;;;;;;;;;5071194;28;20553;-87
2023/02/27 12:18:56;;;;;;;3.37;1.93;;;;;;;;;;5071804;28;20656;-87
2023/02/27 12:22:16;;;;;;;2.80;1.63;;;;;;;;;;5062349;28;20557;-88
2023/02/27 12:25:32;;;;;;;4.77;2.00;;;;;;;;;;5062992;28;20550;-87
2023/02/27 12:29:02;;;;;;;2.30;1.80;;;;;;;;;;5072117;28;20609;-88
2023/02/27 12:32:14;;;;;;;2.87;2.00;;;;;;;;;;5062211;28;20549;-88
2023/02/27 12:35:29;;;;;;;2.40;1.77;;;;;;;;;;5073483;28;20546;-87
2023/02/27 12:38:37;;;;;;;2.80;1.93;;;;;;;;;;5060090;28;20652;-88
2023/02/27 12:42:04;;;;;;;3.83;2.13;;;;;;;;;;5070871;28;20545;-87
2023/02/27 12:45:16;;;;;;;5.63;2.47;;;;;;;;;;5070860;28;21108;-87
2023/02/27 12:48:50;;;;;;;2.93;1.90;;;;;;;;;;5070510;28;20617;-87
2023/02/27 12:52:21;;;;;;;2.70;1.77;;;;;;;;;;5065032;28;20550;-88
2023/02/27 12:55:29;;;;;;;4.37;2.17;;;;;;;;;;5070231;28;20576;-87
2023/02/27 12:59:28;;;;;;;3.13;2.00;;;;;;;;;;5081675;28;20664;-87
2023/02/27 13:02:51;;;;;;;4.83;2.07;;;;;;;;;;5015877;28;21126;-87
2023/02/27 13:06:10;;;;;;;3.80;1.83;;;;;;;;;;5070409;28;20549;-88
2023/02/27 13:09:14;;;;;;;3.83;1.70;;;;;;;;;;5058674;28;20616;-87
2023/02/27 13:12:33;;;;;;;2.67;1.90;;;;;;;;;;5058785;28;20593;-88
2023/02/27 13:15:52;;;;;;;2.80;2.20;;;;;;;;;;5070293;28;20557;-87
2023/02/27 13:18:58;;;;;;;3.40;1.80;;;;;;;;;;5070060;28;20656;-87
2023/02/27 13:22:35;;;;;;;2.70;1.93;;;;;;;;;;5070280;28;20545;-88
2023/02/27 13:25:43;;;;;;;2.53;2.07;;;;;;;;;;5064623;28;20553;-87
2023/02/27 13:28:49;;;;;;;2.90;1.87;;;;;;;;;;5069947;28;20621;-87
2023/02/27 13:32:11;;;;;;;4.57;2.17;;;;;;;;;;5058461;28;20553;-88
2023/02/27 13:35:22;;;;;;;2.23;1.60;;;;;;;;;;5070051;28;20897;-88
2023/02/27 13:38:46;;;;;;;5.70;2.23;;;;;;;;;;5069661;28;20653;-88
2023/02/27 13:41:50;;;;;;;2.67;2.10;;;;;;;;;;5069789;28;20542;-88
2023/02/27 13:44:57;;;;;;;4.07;2.00;;;;;;;;;;5069448;28;20549;-88
2023/02/27 13:48:01;;;;;;;4.10;1.93;;;;;;;;;;5057917;28;20545;-88
2023/02/27 13:51:33;;;;;;;2.57;2.00;;;;;;;;;;5069457;28;20545;-89
2023/02/27 13:54:41;;;;;;;5.30;2.00;;;;;;;;;;5069343;28;20538;-88
2023/02/27 13:57:46;;;;;;;3.77;2.17;;;;;;;;;;5069478;28;20553;-88
2023/02/27 14:00:57;;;;;;;3.00;1.90;;;;;;;;;;5058165;28;20534;-89
2023/02/27 14:04:05;;;;;;;2.60;2.00;;;;;;;;;;5081210;28;20553;-89
2023/02/27 14:07:14;;;;;;;4.13;2.07;;;;;;;;;;5069495;28;20553;-89
2023/02/27 14:10:23;;;;;;;2.97;2.00;;;;;;;;;;5080866;28;20621;-89
2023/02/27 14:13:45;;;;;;;4.63;2.13;;;;;;;;;;5092563;28;20557;-89
2023/02/27 14:16:50;;;;;;;2.50;2.10;;;;;;;;;;5069489;28;20550;-89
2023/02/27 14:19:55;;;;;;;3.27;2.00;;;;;;;;;;5080704;28;20652;-89
2023/02/27 14:23:14;;;;;;;2.90;1.63;;;;;;;;;;5069290;28;20553;-88
2023/02/27 14:26:19;;;;;;;5.17;2.23;;;;;;;;;;5057789;28;20593;-89
2023/02/27 14:29:29;;;;;;;1.90;1.60;;;;;;;;;;5069281;28;20613;-89
2023/02/27 14:32:36;;;;;;;2.03;1.70;;;;;;;;;;5080542;28;20550;-89
2023/02/27 14:35:45;;;;;;;2.53;2.00;;;;;;;;;;5080562;28;20601;-89
2023/02/27 14:38:51;;;;;;;3.60;1.90;;;;;;;;;;5068942;28;20652;-89
2023/02/27 14:42:24;;;;;;;2.23;1.87;;;;;;;;;;5069294;28;20549;-88
2023/02/27 14:45:30;;;;;;;1.93;1.40;;;;;;;;;;5069148;28;20553;-87
2023/02/27 14:48:36;;;;;;;3.37;1.87;;;;;;;;;;5069159;28;21228;-87
2023/02/27 14:51:42;;;;;;;4.27;2.27;;;;;;;;;;5057917;28;20549;-88
2023/02/27 14:54:47;;;;;;;3.60;2.03;;;;;;;;;;5069154;28;21095;-89
2023/02/27 14:58:06;;;;;;;2.70;1.67;;;;;;;;;;5080614;28;20542;-89
2023/02/27 15:01:17;;;;;;;2.93;1.80;;;;;;;;;;5058085;28;20542;-89
2023/02/27 15:04:27;;;;;;;3.77;2.40;;;;;;;;;;5080890;28;21104;-89
2023/02/27 15:07:33;;;;;;;3.37;2.30;;;;;;;;;;5080679;28;20545;-89
2023/02/27 15:10:41;;;;;;;3.80;1.80;;;;;;;;;;5069177;28;20546;-89
2023/02/27 15:13:50;;;;;;;3.03;1.90;;;;;;;;;;5069146;28;20902;-89
2023/02/27 15:16:54;;;;;;;2.43;1.63;;;;;;;;;;5068992;28;20546;-89
2023/02/27 15:19:58;;;;;;;2.97;1.73;;;;;;;;;;5057480;28;20652;-88
2023/02/27 15:23:26;;;;;;;3.07;1.90;;;;;;;;;;5058009;28;20679;-88
2023/02/27 15:26:36;;;;;;;2.70;1.70;;;;;;;;;;5057505;28;20553;-87
2023/02/27 15:29:43;;;;;;;1.73;1.43;;;;;;;;;;5069766;28;20624;-89
2023/02/27 15:32:47;;;;;;;2.40;1.77;;;;;;;;;;5069607;28;20549;-87
2023/02/27 15:35:51;;;;;;;2.60;2.07;;;;;;;;;;5070977;28;20553;-88
2023/02/27 15:39:26;;;;;;;8.43;2.30;;;;;;;;;;5072908;28;21233;-89
2023/02/27 15:42:33;;;;;;;5.37;2.30;;;;;;;;;;5072791;28;20553;-88
2023/02/27 15:45:40;;;;;;;5.03;2.33;;;;;;;;;;5072730;28;20545;-88
2023/02/27 15:48:44;;;;;;;3.70;2.10;;;;;;;;;;5061389;28;20964;-89
2023/02/27 15:52:11;;;;;;;3.87;1.90;;;;;;;;;;5084449;28;20553;-89
2023/02/27 15:55:23;;;;;;;2.23;1.70;;;;;;;;;;5084550;28;21108;-88
2023/02/27 15:58:30;;;;;;;2.43;1.80;;;;;;;;;;5072860;28;20620;-89
2023/02/27 16:01:34;;;;;;;4.50;2.20;;;;;;;;;;5072720;28;20889;-89
2023/02/27 16:04:39;;;;;;;2.80;2.27;;;;;;;;;;5072864;28;20881;-89
2023/02/27 16:07:43;;;;;;;3.70;2.00;;;;;;;;;;5060895;28;20596;-90
2023/02/27 16:10:49;;;;;;;3.33;2.23;;;;;;;;;;5084161;28;20549;-88
2023/02/27 16:13:54;;;;;;;4.40;2.00;;;;;;;;;;5072208;28;21092;-87
2023/02/27 16:16:58;;;;;;;9.17;2.60;;;;;;;;;;5072436;28;20557;-87
2023/02/27 16:20:41;;;;;;;4.20;2.27;;;;;;;;;;5073215;28;20644;-87
2023/02/27 16:23:46;;;;;;;3.90;2.23;;;;;;;;;;5059957;28;20554;-87
2023/02/27 16:26:51;;;;;;;4.47;2.57;;;;;;;;;;5071860;28;20584;-89
2023/02/27 16:30:01;;;;;;;5.60;2.30;;;;;;;;;;5063272;28;20961;-88
2023/02/27 16:33:16;;;;;;;4.57;2.43;;;;;;;;;;5073866;28;20597;-89
2023/02/27 16:36:23;;;;;;;3.57;2.07;;;;;;;;;;5073954;28;20561;-88
2023/02/27 16:39:27;;;;;;;4.63;2.57;;;;;;;;;;5061509;28;20661;-88
2023/02/27 16:42:31;;;;;;;3.73;2.33;;;;;;;;;;5073163;28;20546;-87
2023/02/27 16:45:36;;;;;;;3.57;2.30;;;;;;;;;;5073494;28;21107;-89
2023/02/27 16:48:40;;;;;;;3.87;2.57;;;;;;;;;;5072061;28;20624;-89
2023/02/27 16:51:45;;;;;;;5.17;2.83;;;;;;;;;;5061588;28;20550;-87
2023/02/27 16:54:49;;;;;;;4.73;2.43;;;;;;;;;;5073627;28;20549;-87
2023/02/27 16:57:53;;;;;;;5.17;2.60;;;;;;;;;;5073191;28;20549;-87
2023/02/27 17:00:57;;;;;;;6.03;3.30;;;;;;;;;;5073373;28;20644;-88
2023/02/27 17:04:02;;;;;;;8.30;3.47;;;;;;;;;;5072749;28;20604;-88
2023/02/27 17:07:11;;;;;;;4.73;3.20;;;;;;;;;;5061463;28;21155;-88
2023/02/27 17:10:17;;;;;;;4.60;3.00;;;;;;;;;;5060333;28;20625;-89
2023/02/27 17:13:23;;;;;;;4.47;2.63;;;;;;;;;;5070582;28;20549;-88
2023/02/27 17:16:27;;;;;;;4.33;2.40;;;;;;;;;;5058851;28;20553;-89
2023/02/27 17:19:32;;;;;;;4.17;2.30;;;;;;;;;;5081770;28;20648;-89
2023/02/27 17:22:38;;;;;;;5.13;2.37;;;;;;;;;;5070503;28;20561;-88
2023/02/27 17:25:42;;;;;;;5.43;2.50;;;;;;;;;;5059076;28;20546;-88
2023/02/27 17:28:46;;;;;;;13.20;4.80;;;;;;;;;;5070111;28;20632;-90
2023/02/27 17:31:51;;;;;;;12.53;3.03;;;;;;;;;;5081671;28;20550;-87
2023/02/27 17:34:56;;;;;;;6.70;3.20;;;;;;;;;;5070201;28;20546;-88
2023/02/27 17:38:00;;;;;;;5.00;2.73;;;;;;;;;;5070013;28;20557;-90
2023/02/27 17:41:09;;;;;;;3.53;2.30;;;;;;;;;;5065740;28;20604;-89
2023/02/27 17:44:14;;;;;;;7.00;3.30;;;;;;;;;;5078201;28;20550;-89
2023/02/27 17:47:18;;;;;;;3.73;2.23;;;;;;;;;;5072130;28;20545;-89
2023/02/27 17:50:22;;;;;;;5.50;2.80;;;;;;;;;;5081495;28;20542;-87
2023/02/27 17:53:26;;;;;;;4.43;2.83;;;;;;;;;;5069893;28;20549;-88
2023/02/27 17:56:30;;;;;;;3.43;2.27;;;;;;;;;;5069773;28;20901;-88
2023/02/27 17:59:36;;;;;;;5.43;2.70;;;;;;;;;;5069446;28;20649;-87
2023/02/27 18:02:41;;;;;;;3.67;2.40;;;;;;;;;;5070430;28;20549;-87
2023/02/27 18:05:49;;;;;;;4.90;2.40;;;;;;;;;;5082096;28;20592;-85
2023/02/27 18:08:53;;;;;;;10.10;2.37;;;;;;;;;;5070308;28;20620;-84
2023/02/27 18:12:03;;;;;;;2.00;1.80;;;;;;;;;;5070210;28;20550;-88
2023/02/27 18:15:08;;;;;;;3.80;2.00;;;;;;;;;;5047356;28;20558;-85
2023/02/27 18:18:13;;;;;;;3.90;2.47;;;;;;;;;;5069398;28;20550;-87
2023/02/27 18:21:22;;;;;;;5.17;2.70;;;;;;;;;;5058210;28;20641;-88
2023/02/27 18:24:27;;;;;;;6.10;2.20;;;;;;;;;;5069776;28;20913;-87
2023/02/27 18:27:31;;;;;;;3.97;2.27;;;;;;;;;;5058071;28;20549;-89
2023/02/27 18:30:37;;;;;;;5.83;2.57;;;;;;;;;;5068973;28;20553;-87
2023/02/27 18:33:41;;;;;;;3.67;2.37;;;;;;;;;;5071439;28;20545;-88
2023/02/27 18:36:46;;;;;;;4.20;2.57;;;;;;;;;;5075269;28;20550;-87
2023/02/27 18:39:50;;;;;;;4.37;2.10;;;;;;;;;;5069514;28;20660;-88
2023/02/27 18:42:55;;;;;;;3.77;2.20;;;;;;;;;;5058122;28;20893;-87
2023/02/27 18:45:59;;;;;;;4.77;2.67;;;;;;;;;;5069548;28;20545;-87
2023/02/27 18:49:03;;;;;;;3.37;2.53;;;;;;;;;;5069185;28;21207;-89
2023/02/27 18:52:08;;;;;;;6.27;2.90;;;;;;;;;;5069141;28;20546;-89
2023/02/27 18:55:13;;;;;;;8.73;4.60;;;;;;;;;;5069500;28;20553;-88
2023/02/27 18:58:17;;;;;;;7.57;3.80;;;;;;;;;;5080714;28;20964;-89
2023/02/27 19:01:25;;;;;;;12.17;5.13;;;;;;;;;;5081029;28;20597;-89